createdAt,value
2022-08-26T00:01:37.586Z,36.00
2022-08-26T00:04:19.809Z,34.63
2022-08-26T00:07:08.585Z,35.80
2022-08-26T00:09:54.392Z,34.33
2022-08-26T00:12:37.884Z,36.25
2022-08-26T00:15:35.432Z,38.95
2022-08-26T00:18:30.948Z,34.38
2022-08-26T00:21:20.867Z,36.50
2022-08-26T00:24:10.482Z,34.08
2022-08-26T00:26:59.242Z,32.92
2022-08-26T00:29:42.487Z,37.10
2022-08-26T00:32:30.908Z,36.80
2022-08-26T00:35:13.518Z,41.60
2022-08-26T00:38:09.580Z,31.50
2022-08-26T00:41:03.504Z,35.70
2022-08-26T00:43:52.470Z,33.03
2022-08-26T00:46:46.608Z,30.63
2022-08-26T00:49:59.486Z,34.35
2022-08-26T00:52:49.885Z,35.25
2022-08-26T00:55:52.484Z,36.90
2022-08-26T00:58:43.498Z,38.35
2022-08-26T01:01:29.269Z,39.22
2022-08-26T01:04:21.465Z,33.72
2022-08-26T01:07:03.905Z,36.08
2022-08-26T01:09:53.474Z,35.72
2022-08-26T01:12:40.168Z,37.08
2022-08-26T01:15:33.476Z,37.28
2022-08-26T01:18:23.942Z,36.72
2022-08-26T01:21:26.519Z,32.45
2022-08-26T01:24:17.472Z,33.20
2022-08-26T01:27:00.734Z,32.35
2022-08-26T01:32:33.925Z,35.95
2022-08-26T01:38:03.823Z,31.85
2022-08-26T01:40:54.538Z,30.02
2022-08-26T01:43:38.890Z,30.13
2022-08-26T01:46:30.489Z,32.17
2022-08-26T01:49:14.866Z,30.27
2022-08-26T01:52:06.497Z,43.55
2022-08-26T01:54:56.885Z,34.05
2022-08-26T01:57:39.625Z,34.25
2022-08-26T02:00:28.936Z,30.23
2022-08-26T02:03:25.521Z,25.83
2022-08-26T02:06:15.885Z,33.97
2022-08-26T02:09:02.580Z,33.45
2022-08-26T02:11:51.031Z,38.53
2022-08-26T02:14:43.693Z,30.33
2022-08-26T02:17:47.438Z,28.27
2022-08-26T02:20:37.486Z,29.10
2022-08-26T02:23:26.500Z,33.67
2022-08-26T02:26:28.477Z,26.55
2022-08-26T02:29:37.887Z,22.30
2022-08-26T02:32:19.495Z,23.60
2022-08-26T02:35:08.406Z,24.63
2022-08-26T02:37:52.616Z,28.85
2022-08-26T02:40:44.479Z,30.75
2022-08-26T02:43:33.597Z,42.13
2022-08-26T02:46:29.723Z,41.53
2022-08-26T02:49:11.957Z,42.83
2022-08-26T02:52:00.501Z,40.90
2022-08-26T02:54:50.477Z,44.80
2022-08-26T02:57:32.720Z,41.13
2022-08-26T03:00:25.623Z,48.05
2022-08-26T03:03:14.781Z,43.58
2022-08-26T03:05:57.629Z,50.50
2022-08-26T03:08:40.318Z,39.88
2022-08-26T03:11:32.869Z,43.75
2022-08-26T03:14:22.458Z,38.83
2022-08-26T03:17:19.492Z,38.03
2022-08-26T03:20:01.650Z,38.72
2022-08-26T03:22:51.480Z,41.33
2022-08-26T03:25:41.011Z,28.55
2022-08-26T03:28:22.518Z,27.95
2022-08-26T03:31:10.899Z,25.00
2022-08-26T03:33:53.359Z,17.92
2022-08-26T03:36:37.595Z,24.02
2022-08-26T03:39:27.573Z,28.92
2022-08-26T03:42:14.005Z,23.55
2022-08-26T03:45:02.587Z,20.83
2022-08-26T03:47:51.879Z,14.80
2022-08-26T03:50:35.896Z,21.45
2022-08-26T03:53:24.922Z,26.58
2022-08-26T03:56:06.587Z,22.40
2022-08-26T03:58:48.734Z,22.45
2022-08-26T04:01:39.638Z,21.65
2022-08-26T04:04:22.888Z,16.55
2022-08-26T04:07:14.591Z,15.70
2022-08-26T04:10:04.859Z,20.95
2022-08-26T04:12:47.557Z,14.43
2022-08-26T04:15:30.162Z,91.28
2022-08-26T04:18:25.508Z,15.83
2022-08-26T04:21:21.597Z,14.95
2022-08-26T04:24:03.919Z,21.88
2022-08-26T04:26:52.597Z,19.13
2022-08-26T04:29:34.877Z,22.35
2022-08-26T04:32:24.555Z,21.35
2022-08-26T04:35:06.890Z,23.30
2022-08-26T04:37:56.613Z,22.33
2022-08-26T04:40:39.890Z,22.13
2022-08-26T04:43:38.583Z,23.25
2022-08-26T04:46:32.791Z,24.13
2022-08-26T04:49:15.318Z,20.70
2022-08-26T04:52:04.831Z,23.88
2022-08-26T04:54:53.810Z,21.20
2022-08-26T04:57:35.498Z,23.60
2022-08-26T05:00:25.884Z,19.10
2022-08-26T05:03:10.620Z,23.48
2022-08-26T05:05:59.792Z,22.00
2022-08-26T05:08:41.626Z,17.60
2022-08-26T05:11:30.604Z,19.48
2022-08-26T05:14:13.639Z,15.52
2022-08-26T05:16:55.812Z,17.58
2022-08-26T05:19:45.600Z,19.40
2022-08-26T05:22:40.499Z,24.23
2022-08-26T05:25:29.535Z,20.67
2022-08-26T05:28:33.442Z,20.88
2022-08-26T05:31:25.656Z,26.67
2022-08-26T05:34:09.501Z,31.55
2022-08-26T05:36:58.889Z,28.02
2022-08-26T05:39:41.280Z,25.13
2022-08-26T05:42:32.581Z,25.48
2022-08-26T05:45:22.599Z,26.10
2022-08-26T05:48:04.582Z,22.55
2022-08-26T05:50:51.569Z,22.30
2022-08-26T05:53:40.493Z,23.77
2022-08-26T05:56:32.844Z,20.52
2022-08-26T05:59:23.889Z,17.75
2022-08-26T06:02:08.407Z,15.95
2022-08-26T06:04:57.475Z,19.52
2022-08-26T06:08:10.657Z,20.27
2022-08-26T06:11:01.108Z,10.10
2022-08-26T06:13:51.482Z,10.85
2022-08-26T06:16:46.746Z,14.75
2022-08-26T06:19:32.987Z,10.68
2022-08-26T06:22:50.474Z,12.68
2022-08-26T06:25:49.573Z,12.32
2022-08-26T06:28:38.487Z,12.90
2022-08-26T06:31:28.642Z,12.05
2022-08-26T06:34:11.818Z,14.70
2022-08-26T06:37:01.973Z,10.25
2022-08-26T06:39:51.186Z,12.80
2022-08-26T06:42:34.579Z,10.52
2022-08-26T06:45:16.707Z,11.00
2022-08-26T06:48:05.660Z,21.52
2022-08-26T06:50:49.963Z,11.27
2022-08-26T06:53:38.611Z,10.48
2022-08-26T06:56:26.417Z,13.55
2022-08-26T06:59:16.579Z,13.20
2022-08-26T07:02:06.533Z,6.68
2022-08-26T07:04:57.504Z,9.07
2022-08-26T07:07:45.855Z,7.47
2022-08-26T07:10:27.529Z,11.60
2022-08-26T07:13:17.464Z,9.98
2022-08-26T07:16:19.536Z,14.27
2022-08-26T07:19:11.016Z,10.95
2022-08-26T07:21:53.572Z,11.93
2022-08-26T07:24:45.928Z,10.88
2022-08-26T07:27:28.602Z,13.48
2022-08-26T07:30:17.881Z,13.10
2022-08-26T07:33:00.585Z,9.77
2022-08-26T07:35:43.443Z,10.73
2022-08-26T07:38:32.585Z,12.05
2022-08-26T07:41:25.625Z,6.95
2022-08-26T07:44:14.486Z,13.95
2022-08-26T07:47:02.905Z,7.15
2022-08-26T07:49:52.898Z,9.20
2022-08-26T07:52:44.460Z,10.60
2022-08-26T07:55:29.597Z,10.10
2022-08-26T07:58:19.885Z,10.95
2022-08-26T08:01:01.645Z,6.65
2022-08-26T08:03:52.515Z,10.48
2022-08-26T08:06:35.593Z,6.90
2022-08-26T08:09:25.564Z,8.82
2022-08-26T08:12:07.839Z,9.48
2022-08-26T08:15:02.576Z,6.57
2022-08-26T08:17:45.910Z,8.82
2022-08-26T08:20:35.470Z,7.70
2022-08-26T08:23:25.560Z,9.93
2022-08-26T08:26:25.645Z,9.88
2022-08-26T08:29:14.870Z,8.90
2022-08-26T08:31:58.004Z,6.38
2022-08-26T08:34:47.935Z,7.43
2022-08-26T08:37:30.485Z,12.40
2022-08-26T08:40:26.640Z,9.23
2022-08-26T08:43:31.623Z,9.07
2022-08-26T08:46:25.910Z,9.38
2022-08-26T08:49:11.594Z,6.45
2022-08-26T08:51:56.539Z,12.25
2022-08-26T08:54:47.486Z,21.55
2022-08-26T08:57:38.686Z,18.30
2022-08-26T09:00:33.857Z,20.23
2022-08-26T09:03:38.600Z,22.90
2022-08-26T09:06:28.473Z,22.13
2022-08-26T09:09:25.573Z,8.88
2022-08-26T09:12:16.488Z,14.38
2022-08-26T09:15:30.184Z,13.35
2022-08-26T09:18:38.214Z,11.18
2022-08-26T09:21:31.500Z,10.02
2022-08-26T09:24:15.104Z,12.75
2022-08-26T09:27:14.593Z,13.43
2022-08-26T09:30:14.404Z,19.35
2022-08-26T09:33:19.629Z,17.02
2022-08-26T09:36:41.392Z,12.90
2022-08-26T09:39:37.732Z,12.00
2022-08-26T09:42:28.875Z,14.95
2022-08-26T09:45:20.489Z,16.63
2022-08-26T09:48:04.918Z,15.38
2022-08-26T09:51:06.614Z,14.93
2022-08-26T09:54:02.916Z,13.88
2022-08-26T09:56:54.590Z,10.70
2022-08-26T09:59:40.042Z,14.30
2022-08-26T10:02:39.605Z,14.25
2022-08-26T10:05:26.859Z,14.82
2022-08-26T10:08:47.561Z,14.63
2022-08-26T10:11:48.886Z,10.23
2022-08-26T10:14:49.534Z,13.20
2022-08-26T10:17:44.564Z,13.05
2022-08-26T10:20:44.909Z,14.65
2022-08-26T10:23:33.607Z,11.35
2022-08-26T10:26:30.257Z,12.95
2022-08-26T10:29:31.487Z,9.77
2022-08-26T10:32:30.961Z,17.20
2022-08-26T10:35:22.586Z,18.35
2022-08-26T10:38:11.916Z,14.50
2022-08-26T10:41:13.570Z,11.48
2022-08-26T10:44:07.899Z,9.05
2022-08-26T10:47:04.577Z,11.98
2022-08-26T10:49:49.828Z,14.05
2022-08-26T10:52:50.578Z,14.93
2022-08-26T10:55:47.752Z,14.82
2022-08-26T10:58:46.623Z,13.45
2022-08-26T11:01:51.118Z,15.55
2022-08-26T11:04:47.724Z,12.52
2022-08-26T11:08:03.503Z,17.92
2022-08-26T11:11:02.491Z,18.73
2022-08-26T11:14:07.940Z,16.83
2022-08-26T11:17:01.535Z,14.07
2022-08-26T11:20:00.266Z,19.27
2022-08-26T11:22:51.572Z,12.20
2022-08-26T11:25:34.857Z,15.60
2022-08-26T11:28:47.573Z,13.70
2022-08-26T11:31:42.550Z,16.45
2022-08-26T11:35:12.508Z,17.10
2022-08-26T11:38:30.485Z,9.57
2022-08-26T11:41:31.087Z,13.95
2022-08-26T11:44:25.483Z,12.82
2022-08-26T11:47:11.838Z,11.07
2022-08-26T11:50:15.511Z,17.27
2022-08-26T11:53:07.721Z,13.77
2022-08-26T11:55:58.492Z,15.55
2022-08-26T11:58:41.444Z,13.48
2022-08-26T12:01:36.554Z,13.98
2022-08-26T12:04:35.010Z,11.30
2022-08-26T12:07:24.678Z,14.65
2022-08-26T12:10:11.776Z,16.10
2022-08-26T12:13:05.713Z,26.48
2022-08-26T12:15:47.912Z,19.92
2022-08-26T12:18:40.534Z,15.07
2022-08-26T12:21:42.453Z,13.63
2022-08-26T12:24:30.882Z,15.98
2022-08-26T12:27:37.581Z,15.55
2022-08-26T12:30:31.103Z,19.52
2022-08-26T12:33:29.628Z,16.05
2022-08-26T12:36:18.951Z,20.13
2022-08-26T12:39:01.613Z,23.83
2022-08-26T12:41:57.945Z,20.83
2022-08-26T12:44:54.731Z,23.73
2022-08-26T12:47:45.084Z,20.42
2022-08-26T12:50:39.527Z,16.73
2022-08-26T12:53:33.490Z,21.23
2022-08-26T12:56:40.611Z,19.20
2022-08-26T12:59:34.622Z,18.83
2022-08-26T13:02:23.650Z,19.95
2022-08-26T13:05:11.765Z,19.25
2022-08-26T13:08:20.629Z,16.88
2022-08-26T13:11:16.652Z,15.80
2022-08-26T13:14:09.795Z,17.30
2022-08-26T13:16:59.604Z,18.95
2022-08-26T13:19:41.867Z,25.63
2022-08-26T13:22:32.598Z,23.20
2022-08-26T13:25:15.335Z,21.95
2022-08-26T13:28:08.517Z,28.05
2022-08-26T13:30:55.009Z,28.77
2022-08-26T13:33:44.542Z,25.83
2022-08-26T13:36:39.481Z,24.00
2022-08-26T13:39:35.606Z,25.10
2022-08-26T13:42:25.172Z,28.42
2022-08-26T13:45:14.510Z,32.30
2022-08-26T13:48:03.613Z,29.92
2022-08-26T13:50:52.524Z,26.10
2022-08-26T13:53:41.642Z,37.92
2022-08-26T13:56:31.564Z,28.33
2022-08-26T13:59:20.641Z,33.28
2022-08-26T14:02:11.632Z,24.63
2022-08-26T14:05:01.716Z,31.90
2022-08-26T14:07:43.862Z,29.45
2022-08-26T14:10:32.640Z,23.05
2022-08-26T14:13:15.404Z,22.83
2022-08-26T14:16:06.608Z,37.08
2022-08-26T14:18:56.594Z,28.25
2022-08-26T14:21:42.020Z,31.45
2022-08-26T14:24:30.517Z,22.05
2022-08-26T14:27:19.604Z,19.75
2022-08-26T14:30:01.903Z,24.98
2022-08-26T14:32:53.608Z,30.02
2022-08-26T14:35:35.895Z,20.23
2022-08-26T14:38:24.588Z,17.63
2022-08-26T14:41:20.468Z,20.20
2022-08-26T14:44:18.593Z,17.67
2022-08-26T14:47:08.634Z,21.55
2022-08-26T14:49:50.759Z,19.85
2022-08-26T14:52:59.731Z,21.45
2022-08-26T14:55:43.316Z,22.40
2022-08-26T14:58:35.030Z,18.00
2022-08-26T15:01:17.725Z,27.90
2022-08-26T15:04:06.924Z,40.75
2022-08-26T15:06:49.604Z,26.75
2022-08-26T15:09:39.554Z,34.78
2022-08-26T15:12:30.102Z,30.58
2022-08-26T15:15:15.584Z,30.13
2022-08-26T15:18:04.745Z,34.55
2022-08-26T15:20:46.921Z,39.08
2022-08-26T15:23:35.621Z,33.10
2022-08-26T15:26:26.606Z,33.08
2022-08-26T15:29:15.743Z,34.40
2022-08-26T15:31:59.121Z,28.30
2022-08-26T15:34:47.708Z,32.05
2022-08-26T15:37:30.005Z,39.45
2022-08-26T15:40:26.600Z,29.92
2022-08-26T15:43:28.668Z,29.50
2022-08-26T15:46:27.743Z,33.50
2022-08-26T15:49:18.650Z,26.52
2022-08-26T15:52:04.228Z,34.83
2022-08-26T15:54:47.857Z,35.65
2022-08-26T15:57:38.645Z,37.92
2022-08-26T16:00:28.564Z,33.15
2022-08-26T16:03:18.608Z,31.85
2022-08-26T16:06:38.979Z,35.50
2022-08-26T16:09:27.613Z,30.63
2022-08-26T16:12:09.973Z,27.33
2022-08-26T16:15:10.646Z,34.88
2022-08-26T16:17:52.955Z,33.60
2022-08-26T16:20:41.587Z,31.25
2022-08-26T16:23:45.347Z,29.80
2022-08-26T16:26:37.608Z,30.90
2022-08-26T16:29:26.814Z,31.55
2022-08-26T16:32:16.666Z,35.08
2022-08-26T16:35:06.854Z,28.30
2022-08-26T16:37:49.673Z,36.47
2022-08-26T16:40:52.536Z,39.28
2022-08-26T16:43:51.471Z,35.13
2022-08-26T16:46:49.788Z,33.42
2022-08-26T16:49:34.716Z,36.42
2022-08-26T16:52:24.872Z,40.83
2022-08-26T16:55:22.606Z,40.42
2022-08-26T16:58:04.914Z,49.55
2022-08-26T17:00:53.594Z,42.50
2022-08-26T17:03:35.984Z,55.85
2022-08-26T17:06:24.669Z,40.47
2022-08-26T17:09:06.969Z,45.13
2022-08-26T17:11:58.749Z,51.70
2022-08-26T17:14:49.538Z,56.30
2022-08-26T17:17:38.676Z,45.13
2022-08-26T17:20:23.398Z,42.92
2022-08-26T17:23:15.908Z,34.92
2022-08-26T17:26:02.159Z,35.15
2022-08-26T17:28:51.580Z,30.42
2022-08-26T17:31:33.809Z,25.38
2022-08-26T17:34:22.570Z,25.08
2022-08-26T17:37:04.880Z,24.08
2022-08-26T17:39:53.587Z,24.20
2022-08-26T17:42:35.869Z,29.95
2022-08-26T17:45:32.558Z,21.13
2022-08-26T17:48:15.792Z,18.55
2022-08-26T17:51:07.703Z,20.33
2022-08-26T17:53:59.650Z,18.70
2022-08-26T17:56:41.905Z,19.88
2022-08-26T17:59:30.836Z,17.83
2022-08-26T18:02:12.932Z,21.83
2022-08-26T18:05:01.559Z,22.35
2022-08-26T18:07:44.298Z,20.13
2022-08-26T18:10:35.499Z,19.75
2022-08-26T18:13:18.855Z,22.90
2022-08-26T18:16:11.669Z,22.30
2022-08-26T18:19:01.578Z,21.08
2022-08-26T18:21:52.917Z,22.00
2022-08-26T18:24:37.565Z,20.75
2022-08-26T18:27:26.483Z,19.30
2022-08-26T18:30:10.494Z,22.60
2022-08-26T18:33:01.527Z,19.80
2022-08-26T18:35:53.738Z,22.02
2022-08-26T18:38:45.273Z,20.27
2022-08-26T18:41:30.870Z,23.20
2022-08-26T18:44:20.582Z,16.67
2022-08-26T18:47:16.481Z,19.17
2022-08-26T18:50:05.615Z,21.40
2022-08-26T18:52:47.976Z,20.08
2022-08-26T18:55:36.550Z,20.15
2022-08-26T18:58:18.827Z,18.35
2022-08-26T19:01:07.543Z,21.17
2022-08-26T19:03:56.548Z,19.17
2022-08-26T19:06:46.489Z,25.25
2022-08-26T19:09:36.479Z,20.52
2022-08-26T19:12:27.070Z,16.25
2022-08-26T19:15:10.464Z,21.48
2022-08-26T19:17:59.919Z,19.20
2022-08-26T19:20:46.372Z,21.80
2022-08-26T19:23:31.842Z,18.55
2022-08-26T19:26:23.569Z,21.02
2022-08-26T19:29:05.951Z,19.67
2022-08-26T19:31:54.611Z,19.05
2022-08-26T19:34:37.419Z,19.08
2022-08-26T19:37:27.552Z,21.60
2022-08-26T19:40:17.898Z,18.38
2022-08-26T19:43:00.570Z,20.73
2022-08-26T19:45:55.429Z,20.38
2022-08-26T19:48:55.267Z,18.45
2022-08-26T19:51:44.563Z,18.77
2022-08-26T19:54:26.980Z,16.83
2022-08-26T19:57:15.832Z,18.17
2022-08-26T19:59:57.830Z,26.38
2022-08-26T20:02:47.580Z,20.38
2022-08-26T20:05:31.853Z,13.60
2022-08-26T20:08:22.215Z,13.80
2022-08-26T20:11:10.114Z,14.65
2022-08-26T20:13:58.532Z,17.45
2022-08-26T20:16:47.483Z,19.15
2022-08-26T20:19:54.594Z,17.67
2022-08-26T20:22:38.761Z,14.05
2022-08-26T20:25:27.512Z,17.92
2022-08-26T20:28:10.300Z,16.10
2022-08-26T20:30:59.612Z,12.63
2022-08-26T20:33:48.579Z,14.25
2022-08-26T20:36:37.589Z,14.90
2022-08-26T20:39:28.508Z,15.40
2022-08-26T20:42:20.134Z,15.35
2022-08-26T20:45:02.841Z,15.85
2022-08-26T20:47:51.597Z,18.13
2022-08-26T20:50:41.525Z,19.02
2022-08-26T20:53:30.676Z,17.77
2022-08-26T20:56:14.905Z,15.65
2022-08-26T20:59:06.518Z,16.58
2022-08-26T21:01:56.583Z,16.73
2022-08-26T21:04:38.789Z,19.92
2022-08-26T21:07:28.512Z,14.38
2022-08-26T21:10:13.046Z,15.75
2022-08-26T21:13:02.510Z,18.27
2022-08-26T21:15:50.833Z,15.05
2022-08-26T21:18:33.673Z,16.25
2022-08-26T21:21:24.980Z,17.77
2022-08-26T21:24:08.603Z,17.48
2022-08-26T21:26:56.894Z,18.08
2022-08-26T21:29:38.604Z,17.58
2022-08-26T21:32:20.740Z,18.10
2022-08-26T21:35:13.568Z,16.73
2022-08-26T21:38:01.892Z,20.13
2022-08-26T21:40:43.588Z,18.40
2022-08-26T21:43:34.747Z,16.40
2022-08-26T21:46:22.570Z,20.25
2022-08-26T21:49:21.452Z,18.05
2022-08-26T21:52:14.586Z,22.93
2022-08-26T21:55:03.600Z,17.17
2022-08-26T21:57:50.806Z,28.75
2022-08-26T22:00:39.590Z,20.42
2022-08-26T22:03:27.981Z,19.35
2022-08-26T22:06:14.514Z,24.50
2022-08-26T22:11:54.492Z,19.80
2022-08-26T22:14:43.654Z,16.10
2022-08-26T22:17:28.106Z,22.73
2022-08-26T22:20:17.633Z,22.48
2022-08-26T22:22:59.953Z,17.00
2022-08-26T22:25:48.574Z,19.00
2022-08-26T22:28:30.810Z,19.17
2022-08-26T22:31:21.707Z,17.63
2022-08-26T22:34:16.512Z,25.90
2022-08-26T22:37:05.478Z,17.63
2022-08-26T22:39:54.532Z,19.67
2022-08-26T22:42:43.045Z,21.23
2022-08-26T22:45:39.631Z,20.45
2022-08-26T22:48:38.457Z,19.65
2022-08-26T22:51:35.582Z,21.58
2022-08-26T22:54:24.496Z,18.73
2022-08-26T22:57:13.591Z,19.40
2022-08-26T23:00:02.515Z,20.30
2022-08-26T23:02:44.893Z,23.17
2022-08-26T23:05:33.570Z,20.58
2022-08-26T23:08:17.898Z,23.08
2022-08-26T23:11:06.489Z,27.05
2022-08-26T23:13:48.959Z,25.10
2022-08-26T23:16:39.500Z,23.77
2022-08-26T23:19:23.892Z,24.33
2022-08-26T23:22:12.589Z,25.20
2022-08-26T23:24:54.763Z,32.70
2022-08-26T23:27:47.636Z,26.60
2022-08-26T23:30:42.494Z,31.98
2022-08-26T23:33:50.678Z,29.63
2022-08-26T23:36:34.376Z,26.60
2022-08-26T23:39:16.978Z,26.75
2022-08-26T23:42:05.641Z,29.48
2022-08-26T23:44:47.872Z,29.98
2022-08-26T23:47:36.606Z,36.80
2022-08-26T23:50:27.563Z,30.75
2022-08-26T23:53:16.594Z,26.10
2022-08-26T23:55:58.782Z,28.80
2022-08-26T23:58:47.494Z,29.52
